Terminal Aerodrome Forecast
Issued by NWS Tallahassee, FL

Home | Current Version | Previous Version | Text Only | Print | Product List | Glossary On
Versions: 1 2 3 4 5 6 7 8 9 10 11 12 13 14 15
000
FTUS42 KTAE 012300
TAFTLH
TAF
KTLH 012334Z 0200/0224 27004KT P6SM FEW040 SCT250
     FM020300 00000KT P6SM FEW250
     FM021500 30004KT P6SM FEW040
     FM021800 27007KT P6SM VCTS SCT050CB=

USA.gov is the U.S. government's official web portal to all federal, state and local government web resources and services.